Henderson, Nebraska
Current Conditions -  °F | °C
As of 2:55 PM on Saturday 20 Dec 2014 (Local Time) from KAUH Reporting Station
Haze Haze  
Wind Chill: 28°   Ceiling: 300
Heat Index: 34°   Visibility: 5mi
Dew Point: 34°   Wind: 6mph
Humidity: 100%   Direction: 140°SE
Pressure: 30"   Gusts: NA
Location:  40.78°N, 97.81°W
Report Text: KAUH 202055Z AUTO 14005KT 5SM BR OVC003 01/01 A3000 RMK AO2 T00090009
Loading
Personal Weather Stations






























Interactive Weather Map New forecast layout! Learn more

10-Day Weather Forecast

Advertisements
Track Severe Weather on mobile